createdAt,value
2022-11-27T00:00:00.521Z,65.85
2022-11-27T00:02:27.502Z,66.30
2022-11-27T00:04:54.531Z,66.23
2022-11-27T00:07:21.545Z,65.75
2022-11-27T00:09:48.503Z,66.20
2022-11-27T00:12:15.377Z,67.04
2022-11-27T00:14:42.279Z,67.64
2022-11-27T00:17:09.183Z,67.42
2022-11-27T00:19:36.146Z,67.93
2022-11-27T00:22:02.997Z,68.36
2022-11-27T00:24:30.003Z,68.89
2022-11-27T00:26:56.971Z,68.23
2022-11-27T00:29:23.888Z,67.79
2022-11-27T00:31:50.764Z,70.39
2022-11-27T00:34:17.619Z,70.21
2022-11-27T00:36:48.022Z,68.63
2022-11-27T00:39:15.387Z,69.16
2022-11-27T00:41:42.311Z,70.29
2022-11-27T00:44:09.286Z,68.66
2022-11-27T00:46:36.517Z,67.41
2022-11-27T00:49:05.911Z,68.19
2022-11-27T00:51:32.889Z,69.79
2022-11-27T00:53:59.913Z,69.90
2022-11-27T00:56:30.634Z,70.27
2022-11-27T00:58:57.801Z,69.17
2022-11-27T01:01:30.454Z,68.88
2022-11-27T01:03:58.825Z,70.96
2022-11-27T01:06:27.416Z,71.38
2022-11-27T01:08:54.884Z,70.69
2022-11-27T01:11:27.476Z,72.41
2022-11-27T01:13:57.376Z,71.23
2022-11-27T01:16:25.992Z,69.93
2022-11-27T01:18:55.764Z,69.72
2022-11-27T01:21:22.651Z,70.68
2022-11-27T01:23:50.257Z,70.03
2022-11-27T01:26:18.085Z,70.39
2022-11-27T01:28:46.014Z,70.40
2022-11-27T01:31:21.795Z,72.08
2022-11-27T01:33:53.536Z,71.04
2022-11-27T01:36:20.855Z,70.33
2022-11-27T01:38:47.933Z,70.43
2022-11-27T01:41:22.414Z,71.55
2022-11-27T01:43:58.775Z,71.94
2022-11-27T01:46:53.578Z,72.18
2022-11-27T01:49:47.501Z,70.25
2022-11-27T01:52:26.137Z,67.60
2022-11-27T01:55:01.833Z,66.93
2022-11-27T01:57:36.377Z,68.46
2022-11-27T02:00:06.981Z,68.74
2022-11-27T02:02:40.029Z,71.08
2022-11-27T02:05:07.333Z,72.71
2022-11-27T02:07:34.760Z,73.46
2022-11-27T02:10:02.226Z,72.84
2022-11-27T02:12:44.918Z,72.14
2022-11-27T02:15:26.697Z,73.66
2022-11-27T02:18:27.638Z,73.21
2022-11-27T02:21:09.114Z,74.00
2022-11-27T02:23:42.197Z,74.81
2022-11-27T02:26:18.727Z,74.11
2022-11-27T02:28:54.773Z,73.25
2022-11-27T02:31:47.914Z,73.76
2022-11-27T02:34:24.143Z,72.89
2022-11-27T02:37:03.613Z,72.93
2022-11-27T02:39:37.694Z,73.43
2022-11-27T02:42:11.504Z,72.62
2022-11-27T02:44:44.548Z,74.09
2022-11-27T02:47:13.653Z,75.65
2022-11-27T02:49:43.255Z,75.28
2022-11-27T02:52:14.046Z,76.53
2022-11-27T02:54:43.648Z,76.28
2022-11-27T02:57:13.127Z,74.64
2022-11-27T02:59:43.038Z,75.36
2022-11-27T03:02:14.939Z,76.36
2022-11-27T03:04:55.625Z,76.37
2022-11-27T03:07:36.145Z,76.59
2022-11-27T03:10:10.272Z,78.08
2022-11-27T03:12:37.468Z,78.66
2022-11-27T03:15:06.590Z,78.41
2022-11-27T03:18:08.759Z,77.25
2022-11-27T03:20:41.402Z,78.25
2022-11-27T03:23:08.298Z,78.04
2022-11-27T03:25:35.306Z,77.58
2022-11-27T03:28:06.198Z,76.96
2022-11-27T03:30:33.150Z,78.60
2022-11-27T03:33:01.409Z,79.59
2022-11-27T03:35:31.418Z,79.52
2022-11-27T03:37:58.544Z,79.10
2022-11-27T03:40:34.302Z,77.85
2022-11-27T03:43:11.646Z,78.14
2022-11-27T03:45:49.335Z,77.77
2022-11-27T03:48:34.178Z,78.28
2022-11-27T03:51:05.806Z,76.37
2022-11-27T03:53:45.083Z,74.66
2022-11-27T03:56:42.373Z,74.09
2022-11-27T03:59:16.036Z,74.65
2022-11-27T04:01:43.055Z,73.52
2022-11-27T04:04:10.066Z,74.01
2022-11-27T04:06:36.972Z,74.08
2022-11-27T04:09:04.414Z,73.82
2022-11-27T04:11:31.310Z,75.11
2022-11-27T04:13:58.993Z,73.76
2022-11-27T04:16:25.931Z,72.60
2022-11-27T04:18:52.891Z,74.42
2022-11-27T04:21:19.766Z,73.57
2022-11-27T04:23:46.744Z,72.23
2022-11-27T04:26:13.702Z,72.37
2022-11-27T04:28:40.635Z,73.45
2022-11-27T04:31:07.598Z,74.61
2022-11-27T04:33:34.582Z,74.37
2022-11-27T04:36:01.442Z,75.65
2022-11-27T04:38:28.334Z,76.70
2022-11-27T04:40:55.238Z,77.58
2022-11-27T04:43:22.137Z,77.68
2022-11-27T04:45:48.986Z,76.84
2022-11-27T04:48:15.913Z,78.01
2022-11-27T04:50:42.815Z,79.11
2022-11-27T04:53:09.700Z,78.11
2022-11-27T04:55:36.675Z,79.32
2022-11-27T04:58:03.916Z,79.65
2022-11-27T05:00:30.893Z,78.85
2022-11-27T05:02:57.837Z,77.16
2022-11-27T05:05:24.762Z,76.32
2022-11-27T05:07:51.682Z,80.78
2022-11-27T05:10:18.665Z,78.99
2022-11-27T05:12:45.737Z,81.21
2022-11-27T05:15:12.626Z,79.73
2022-11-27T05:17:39.715Z,78.94
2022-11-27T05:20:07.847Z,79.38
2022-11-27T05:22:34.747Z,79.62
2022-11-27T05:25:01.710Z,81.45
2022-11-27T05:27:28.552Z,83.31
2022-11-27T05:29:55.450Z,82.12
2022-11-27T05:32:22.317Z,83.98
2022-11-27T05:34:49.798Z,84.88
2022-11-27T05:37:19.738Z,84.19
2022-11-27T05:39:47.163Z,82.21
2022-11-27T05:42:14.410Z,81.78
2022-11-27T05:44:41.365Z,79.23
2022-11-27T05:47:08.489Z,81.04
2022-11-27T05:49:35.443Z,82.15
2022-11-27T05:52:02.336Z,81.57
2022-11-27T05:54:29.225Z,81.19
2022-11-27T05:56:56.076Z,80.46
2022-11-27T05:59:22.982Z,82.78
2022-11-27T06:01:49.917Z,81.44
2022-11-27T06:04:16.888Z,82.08
2022-11-27T06:06:43.816Z,81.29
2022-11-27T06:09:13.203Z,81.10
2022-11-27T06:11:41.946Z,81.68
2022-11-27T06:14:10.356Z,81.99
2022-11-27T06:16:37.960Z,82.88
2022-11-27T06:19:05.003Z,80.61
2022-11-27T06:21:31.961Z,77.73
2022-11-27T06:23:59.492Z,77.32
2022-11-27T06:26:29.660Z,77.84
2022-11-27T06:28:58.209Z,77.54
2022-11-27T06:31:28.122Z,77.55
2022-11-27T06:33:55.937Z,73.83
2022-11-27T06:36:25.514Z,72.90
2022-11-27T06:38:52.374Z,75.54
2022-11-27T06:41:21.804Z,77.58
2022-11-27T06:43:48.954Z,77.97
2022-11-27T06:46:19.286Z,78.97
2022-11-27T06:48:47.517Z,77.90
2022-11-27T06:51:18.904Z,79.45
2022-11-27T06:53:45.929Z,78.95
2022-11-27T06:56:15.590Z,77.85
2022-11-27T06:58:43.107Z,78.67
2022-11-27T07:01:13.574Z,78.22
2022-11-27T07:03:41.095Z,75.79
2022-11-27T07:06:10.446Z,76.82
2022-11-27T07:08:37.415Z,72.84
2022-11-27T07:11:06.562Z,70.72
2022-11-27T07:13:33.894Z,70.72
2022-11-27T07:16:09.629Z,69.41
2022-11-27T07:18:42.242Z,66.68
2022-11-27T07:21:09.681Z,65.70
2022-11-27T07:23:37.788Z,64.67
2022-11-27T07:26:09.614Z,63.49
2022-11-27T07:28:36.659Z,61.57
2022-11-27T07:31:03.978Z,60.53
2022-11-27T07:33:30.913Z,60.33
2022-11-27T07:36:03.403Z,58.13
2022-11-27T07:38:30.315Z,58.23
2022-11-27T07:41:01.384Z,55.67
2022-11-27T07:43:29.057Z,54.85
2022-11-27T07:45:56.346Z,54.25
2022-11-27T07:48:23.539Z,50.67
2022-11-27T07:50:50.416Z,49.26
2022-11-27T07:53:17.502Z,49.89
2022-11-27T07:55:44.436Z,46.88
2022-11-27T07:58:11.479Z,48.87
2022-11-27T08:00:38.494Z,49.55
2022-11-27T08:03:05.584Z,48.08
2022-11-27T08:05:36.706Z,48.19
2022-11-27T08:08:04.965Z,48.80
2022-11-27T08:10:35.884Z,50.31
2022-11-27T08:13:02.889Z,48.02
2022-11-27T08:15:29.923Z,46.66
2022-11-27T08:17:57.657Z,49.33
2022-11-27T08:20:24.797Z,49.11
2022-11-27T08:22:51.697Z,50.25
2022-11-27T08:25:18.806Z,50.64
2022-11-27T08:27:48.248Z,48.98
2022-11-27T08:30:15.904Z,46.12
2022-11-27T08:32:43.803Z,46.72
2022-11-27T08:35:11.786Z,46.07
2022-11-27T08:37:38.827Z,45.54
2022-11-27T08:40:06.534Z,44.28
2022-11-27T08:42:33.431Z,42.64
2022-11-27T08:45:00.449Z,41.44
2022-11-27T08:47:27.311Z,39.62
2022-11-27T08:49:54.276Z,40.94
2022-11-27T08:52:21.924Z,39.77
2022-11-27T08:54:52.018Z,36.86
2022-11-27T08:57:23.064Z,35.70
2022-11-27T08:59:50.000Z,35.35
2022-11-27T09:02:16.884Z,35.92
2022-11-27T09:04:44.006Z,35.80
2022-11-27T09:07:14.440Z,35.50
2022-11-27T09:09:41.485Z,35.91
2022-11-27T09:12:08.715Z,38.53
2022-11-27T09:14:35.681Z,38.46
2022-11-27T09:17:02.702Z,37.76
2022-11-27T09:19:29.651Z,39.53
2022-11-27T09:21:56.534Z,36.90
2022-11-27T09:24:23.661Z,36.78
2022-11-27T09:26:50.548Z,34.54
2022-11-27T09:29:17.445Z,35.60
2022-11-27T09:31:44.364Z,34.01
2022-11-27T09:34:11.340Z,34.66
2022-11-27T09:36:38.253Z,32.81
2022-11-27T09:39:05.200Z,32.41
2022-11-27T09:41:39.767Z,35.74
2022-11-27T09:44:33.723Z,35.85
2022-11-27T09:47:10.210Z,39.15
2022-11-27T09:49:45.899Z,35.71
2022-11-27T09:52:21.157Z,33.63
2022-11-27T09:54:57.839Z,31.89
2022-11-27T09:57:33.146Z,35.88
2022-11-27T10:00:07.136Z,35.23
2022-11-27T10:02:35.566Z,36.23
2022-11-27T10:05:15.467Z,33.16
2022-11-27T10:07:51.976Z,33.77
2022-11-27T10:10:41.465Z,36.02
2022-11-27T10:13:22.132Z,34.00
2022-11-27T10:16:01.792Z,34.62
2022-11-27T10:18:33.758Z,34.79
2022-11-27T10:21:13.397Z,36.46
2022-11-27T10:24:12.933Z,35.61
2022-11-27T10:26:48.603Z,35.42
2022-11-27T10:29:36.378Z,34.84
2022-11-27T10:35:19.734Z,34.54
2022-11-27T10:37:51.787Z,35.41
2022-11-27T10:40:36.537Z,34.90
2022-11-27T10:43:24.082Z,37.31
2022-11-27T10:45:56.708Z,36.96
2022-11-27T10:48:24.058Z,38.51
2022-11-27T10:50:51.880Z,39.12
2022-11-27T10:53:18.761Z,38.91
2022-11-27T10:55:55.255Z,37.16
2022-11-27T10:58:37.367Z,38.02
2022-11-27T11:01:10.729Z,37.81
2022-11-27T11:03:37.931Z,38.15
2022-11-27T11:06:24.546Z,38.05
2022-11-27T11:09:13.218Z,39.33
2022-11-27T11:11:40.828Z,41.68
2022-11-27T11:14:23.008Z,39.79
2022-11-27T11:16:51.477Z,41.23
2022-11-27T11:19:34.456Z,40.24
2022-11-27T11:22:14.597Z,40.81
2022-11-27T11:24:52.620Z,39.92
2022-11-27T11:27:25.316Z,38.78
2022-11-27T11:29:55.549Z,40.75
2022-11-27T11:32:36.379Z,42.32
2022-11-27T11:35:34.849Z,42.53
2022-11-27T11:38:05.569Z,41.00
2022-11-27T11:40:37.653Z,39.83
2022-11-27T11:43:10.141Z,40.09
2022-11-27T11:45:46.289Z,41.73
2022-11-27T11:48:28.944Z,42.29
2022-11-27T11:51:17.733Z,43.31
2022-11-27T11:54:01.258Z,41.76
2022-11-27T11:56:38.098Z,42.76
2022-11-27T11:59:47.354Z,42.72
2022-11-27T12:02:39.448Z,41.26
2022-11-27T12:05:25.857Z,41.62
2022-11-27T12:07:59.895Z,43.68
2022-11-27T12:10:28.080Z,43.52
2022-11-27T12:13:22.238Z,45.05
2022-11-27T12:16:07.793Z,45.60
2022-11-27T12:18:37.755Z,46.62
2022-11-27T12:21:16.696Z,44.66
2022-11-27T12:24:12.922Z,44.28
2022-11-27T12:27:13.127Z,43.26
2022-11-27T12:30:04.022Z,43.78
2022-11-27T12:32:46.981Z,43.42
2022-11-27T12:35:33.429Z,41.63
2022-11-27T12:38:44.427Z,42.27
2022-11-27T12:41:14.271Z,43.01
2022-11-27T12:43:48.095Z,41.03
2022-11-27T12:46:35.361Z,41.47
2022-11-27T12:49:10.519Z,43.64
2022-11-27T12:51:41.362Z,43.50
2022-11-27T12:54:29.975Z,44.51
2022-11-27T12:57:03.422Z,46.62
2022-11-27T12:59:58.649Z,48.22
2022-11-27T13:02:47.231Z,46.76
2022-11-27T13:05:16.319Z,47.08
2022-11-27T13:07:52.014Z,48.98
2022-11-27T13:10:47.516Z,48.12
2022-11-27T13:13:17.102Z,47.58
2022-11-27T13:15:58.901Z,47.79
2022-11-27T13:18:31.680Z,48.30
2022-11-27T13:21:01.341Z,47.29
2022-11-27T13:23:35.141Z,46.61
2022-11-27T13:26:12.090Z,47.05
2022-11-27T13:28:45.641Z,47.34
2022-11-27T13:31:26.295Z,47.54
2022-11-27T13:34:09.572Z,47.67
2022-11-27T13:36:42.843Z,47.48
2022-11-27T13:39:24.063Z,48.36
2022-11-27T13:42:02.771Z,47.09
2022-11-27T13:44:30.880Z,46.54
2022-11-27T13:47:05.130Z,47.38
2022-11-27T13:49:34.255Z,50.42
2022-11-27T13:52:10.813Z,49.15
2022-11-27T13:54:38.747Z,50.44
2022-11-27T13:57:17.804Z,49.88
2022-11-27T14:00:06.838Z,48.86
2022-11-27T14:02:51.015Z,48.51
2022-11-27T14:05:21.210Z,48.26
2022-11-27T14:07:51.579Z,48.12
2022-11-27T14:10:24.504Z,47.63
2022-11-27T14:12:54.454Z,48.46
2022-11-27T14:15:24.591Z,48.41
2022-11-27T14:18:04.431Z,48.13
2022-11-27T14:20:35.522Z,49.03
2022-11-27T14:23:17.758Z,49.44
2022-11-27T14:25:44.724Z,49.69
2022-11-27T14:28:21.991Z,49.24
2022-11-27T14:31:00.367Z,53.30
2022-11-27T14:33:31.194Z,53.33
2022-11-27T14:36:03.972Z,53.12
2022-11-27T14:38:33.317Z,54.61
2022-11-27T14:41:11.749Z,55.17
2022-11-27T14:43:38.709Z,54.83
2022-11-27T14:46:08.315Z,55.29
2022-11-27T14:48:49.927Z,54.93
2022-11-27T14:51:19.392Z,53.81
2022-11-27T14:53:47.974Z,55.31
2022-11-27T14:56:16.184Z,54.83
2022-11-27T14:58:52.588Z,55.32
2022-11-27T15:01:28.061Z,56.41
2022-11-27T15:04:06.149Z,55.62
2022-11-27T15:06:46.337Z,56.09
2022-11-27T15:09:34.994Z,55.64
2022-11-27T15:12:18.250Z,56.22
2022-11-27T15:14:54.530Z,55.70
2022-11-27T15:17:27.624Z,55.78
2022-11-27T15:19:56.784Z,54.98
2022-11-27T15:22:24.550Z,55.37
2022-11-27T15:25:03.810Z,55.34
2022-11-27T15:27:45.820Z,55.57
2022-11-27T15:30:16.941Z,54.87
2022-11-27T15:32:51.971Z,55.00
2022-11-27T15:35:23.577Z,55.76
2022-11-27T15:37:51.734Z,56.63
2022-11-27T15:40:37.474Z,56.53
2022-11-27T15:43:15.558Z,56.43
2022-11-27T15:45:44.527Z,57.20
2022-11-27T15:48:16.899Z,57.49
2022-11-27T15:50:50.074Z,56.49
2022-11-27T15:53:18.830Z,56.81
2022-11-27T15:55:45.842Z,56.71
2022-11-27T15:58:12.867Z,56.54
2022-11-27T16:00:40.724Z,57.52
2022-11-27T16:03:07.896Z,58.74
2022-11-27T16:05:34.766Z,58.41
2022-11-27T16:08:01.722Z,58.79
2022-11-27T16:10:28.666Z,58.75
2022-11-27T16:12:57.639Z,57.72
2022-11-27T16:15:30.037Z,58.09
2022-11-27T16:17:59.741Z,57.93
2022-11-27T16:20:27.070Z,58.35
2022-11-27T16:22:54.241Z,58.78
2022-11-27T16:25:21.157Z,59.54
2022-11-27T16:27:48.089Z,59.25
2022-11-27T16:30:15.217Z,59.95
2022-11-27T16:32:42.325Z,60.42
2022-11-27T16:35:09.757Z,60.77
2022-11-27T16:37:36.825Z,62.19
2022-11-27T16:40:04.091Z,61.25
2022-11-27T16:42:31.602Z,61.71
2022-11-27T16:44:58.703Z,61.36
2022-11-27T16:47:32.149Z,61.98
2022-11-27T16:50:01.138Z,62.39
2022-11-27T16:52:28.740Z,62.43
2022-11-27T16:54:56.296Z,62.91
2022-11-27T16:57:23.659Z,63.69
2022-11-27T16:59:50.967Z,63.84
2022-11-27T17:02:19.476Z,64.25
2022-11-27T17:04:46.361Z,63.68
2022-11-27T17:07:13.320Z,64.65
2022-11-27T17:09:42.248Z,65.30
2022-11-27T17:12:09.199Z,64.19
2022-11-27T17:14:37.136Z,65.09
2022-11-27T17:17:05.811Z,63.92
2022-11-27T17:19:32.638Z,63.31
2022-11-27T17:22:00.367Z,64.60
2022-11-27T17:24:29.003Z,64.14
2022-11-27T17:26:56.256Z,63.80
2022-11-27T17:29:33.543Z,64.09
2022-11-27T17:32:02.830Z,64.37
2022-11-27T17:34:30.190Z,65.09
2022-11-27T17:36:58.766Z,66.65
2022-11-27T17:39:26.662Z,68.23
2022-11-27T17:41:53.574Z,67.66
2022-11-27T17:44:20.776Z,67.10
2022-11-27T17:46:50.191Z,66.09
2022-11-27T17:49:19.635Z,68.46
2022-11-27T17:51:48.898Z,68.37
2022-11-27T17:54:16.204Z,70.34
2022-11-27T17:56:43.427Z,70.18
2022-11-27T17:59:10.838Z,69.02
2022-11-27T18:01:38.998Z,69.69
2022-11-27T18:04:06.126Z,69.62
2022-11-27T18:06:33.664Z,70.27
2022-11-27T18:09:01.233Z,70.45
2022-11-27T18:11:31.059Z,69.95
2022-11-27T18:14:00.449Z,69.66
2022-11-27T18:16:32.008Z,71.10
2022-11-27T18:19:00.084Z,71.35
2022-11-27T18:21:28.807Z,70.62
2022-11-27T18:29:30.365Z,69.30
2022-11-27T18:31:57.349Z,68.86
2022-11-27T18:34:24.342Z,67.96
2022-11-27T18:36:51.348Z,68.67
2022-11-27T18:39:18.666Z,69.36
2022-11-27T18:41:45.576Z,69.20
2022-11-27T18:44:12.569Z,68.54
2022-11-27T18:46:39.602Z,68.55
2022-11-27T18:49:06.768Z,69.14
2022-11-27T18:51:33.682Z,70.06
2022-11-27T18:54:01.086Z,70.13
2022-11-27T18:56:32.134Z,70.97
2022-11-27T18:59:07.079Z,70.56
2022-11-27T19:01:41.456Z,70.50
2022-11-27T19:04:09.543Z,72.30
2022-11-27T19:06:37.853Z,73.38
2022-11-27T19:09:06.291Z,75.48
2022-11-27T19:11:34.167Z,75.25
2022-11-27T19:14:01.888Z,76.56
2022-11-27T19:16:35.528Z,75.87
2022-11-27T19:19:05.024Z,74.90
2022-11-27T19:21:34.548Z,74.85
2022-11-27T19:24:03.732Z,74.21
2022-11-27T19:26:33.915Z,73.21
2022-11-27T19:29:04.190Z,74.26
2022-11-27T19:31:33.209Z,73.84
2022-11-27T19:34:02.463Z,73.17
2022-11-27T19:36:31.545Z,71.98
2022-11-27T19:39:06.509Z,73.44
2022-11-27T19:41:34.129Z,74.15
2022-11-27T19:44:05.646Z,74.54
2022-11-27T19:46:37.907Z,76.34
2022-11-27T19:49:08.220Z,77.72
2022-11-27T19:51:37.553Z,78.61
2022-11-27T19:54:10.067Z,78.45
2022-11-27T19:56:40.190Z,78.53
2022-11-27T19:59:08.039Z,79.75
2022-11-27T20:01:35.477Z,78.77
2022-11-27T20:04:04.128Z,76.77
2022-11-27T20:06:31.809Z,78.03
2022-11-27T20:09:02.045Z,76.95
2022-11-27T20:11:34.642Z,76.91
2022-11-27T20:14:05.890Z,77.26
2022-11-27T20:16:34.781Z,78.05
2022-11-27T20:19:05.717Z,78.26
2022-11-27T20:21:34.725Z,78.57
2022-11-27T20:24:03.225Z,77.77
2022-11-27T20:26:30.810Z,77.42
2022-11-27T20:28:59.086Z,77.87
2022-11-27T20:31:37.730Z,79.50
2022-11-27T20:34:09.065Z,80.94
2022-11-27T20:36:39.326Z,80.74
2022-11-27T20:39:06.676Z,78.61
2022-11-27T20:41:33.640Z,77.73
2022-11-27T20:44:02.511Z,76.68
2022-11-27T20:46:32.061Z,77.73
2022-11-27T20:48:59.652Z,79.02
2022-11-27T20:51:33.444Z,79.87
2022-11-27T20:54:07.165Z,79.07
2022-11-27T20:56:34.353Z,79.14
2022-11-27T20:59:01.574Z,77.61
2022-11-27T21:01:34.820Z,76.83
2022-11-27T21:04:09.342Z,77.23
2022-11-27T21:06:43.420Z,76.82
2022-11-27T21:09:13.959Z,77.88
2022-11-27T21:11:41.406Z,77.80
2022-11-27T21:14:11.169Z,77.27
2022-11-27T21:16:42.118Z,76.76
2022-11-27T21:19:15.685Z,77.74
2022-11-27T21:21:42.773Z,78.99
2022-11-27T21:24:10.074Z,78.32
2022-11-27T21:26:37.200Z,79.52
2022-11-27T21:29:04.494Z,77.81
2022-11-27T21:31:37.251Z,77.92
2022-11-27T21:34:07.066Z,77.44
2022-11-27T21:36:37.092Z,80.61
2022-11-27T21:39:08.210Z,80.44
2022-11-27T21:41:36.367Z,79.59
2022-11-27T21:44:05.422Z,78.43
2022-11-27T21:46:33.852Z,79.50
2022-11-27T21:49:04.597Z,78.47
2022-11-27T21:51:31.748Z,79.43
2022-11-27T21:53:59.632Z,80.27
2022-11-27T21:56:28.871Z,79.92
2022-11-27T21:58:56.197Z,80.23
2022-11-27T22:01:24.866Z,79.71
2022-11-27T22:03:56.613Z,78.36
2022-11-27T22:06:27.039Z,78.68
2022-11-27T22:08:56.847Z,79.85
2022-11-27T22:11:30.425Z,80.19
2022-11-27T22:14:00.670Z,79.86
2022-11-27T22:16:33.505Z,78.65
2022-11-27T22:19:01.352Z,76.23
2022-11-27T22:21:30.198Z,75.43
2022-11-27T22:23:58.548Z,78.40
2022-11-27T22:26:25.863Z,76.20
2022-11-27T22:28:53.555Z,76.71
2022-11-27T22:31:24.108Z,76.19
2022-11-27T22:33:51.541Z,75.91
2022-11-27T22:36:20.701Z,74.92
2022-11-27T22:38:49.407Z,76.82
2022-11-27T22:41:16.975Z,78.53
2022-11-27T22:43:45.046Z,78.67
2022-11-27T22:46:35.597Z,77.08
2022-11-27T22:49:06.815Z,76.79
2022-11-27T22:51:35.796Z,75.42
2022-11-27T22:54:04.464Z,74.52
2022-11-27T22:56:36.220Z,74.93
2022-11-27T22:59:31.005Z,73.42
2022-11-27T23:01:52.897Z,75.45
2022-11-27T23:04:19.855Z,77.26
2022-11-27T23:06:48.555Z,75.30
2022-11-27T23:09:18.093Z,75.05
2022-11-27T23:11:45.497Z,74.18
2022-11-27T23:14:12.775Z,73.31
2022-11-27T23:16:40.165Z,76.18
2022-11-27T23:19:07.344Z,76.63
2022-11-27T23:21:37.632Z,74.22
2022-11-27T23:24:06.267Z,74.38
2022-11-27T23:26:33.137Z,74.05
2022-11-27T23:29:00.050Z,73.37
2022-11-27T23:31:31.224Z,75.46
2022-11-27T23:34:01.320Z,76.84
2022-11-27T23:36:29.380Z,75.17
2022-11-27T23:38:56.831Z,72.87
2022-11-27T23:41:25.145Z,75.52
2022-11-27T23:43:53.679Z,74.07
2022-11-27T23:46:22.801Z,75.52
2022-11-27T23:48:49.936Z,73.36
2022-11-27T23:51:18.658Z,73.73
2022-11-27T23:53:45.958Z,73.48
2022-11-27T23:56:16.370Z,73.88
2022-11-27T23:58:47.248Z,73.24
